| time (UTC) | temp F | wind direction | speed MPH | gust MPH | rain 1hr in | rain 24hr in | rain mn in | humidity % | barometer mb |
| 20260906041850 | 49 | 325 | 2.0 | 4.0 | 0.00 | 0.05 | 0.00 | 89 | 1003.6 |
| 20260906041848 | 49 | 325 | 2.0 | 4.0 | 0.00 | 0.05 | 0.00 | 89 | 1003.6 |
| 20260906035903 | 49 | 305 | 2.0 | 5.0 | 0.00 | 0.05 | 0.00 | 90 | 1003.4 |
| 20260906033933 | 49 | 324 | 1.0 | 3.0 | 0.00 | 0.05 | 0.00 | 90 | 1003.2 |
| 20260906032248 | 49 | 318 | 2.0 | 4.0 | 0.00 | 0.05 | 0.00 | 90 | 1003.2 |
| 20260906032243 | 49 | 318 | 2.0 | 4.0 | 0.00 | 0.05 | 0.00 | 90 | 1003.2 |
| 20260906030543 | 49 | 297 | 3.0 | 8.0 | 0.00 | 0.05 | 0.00 | 91 | 1003.0 |
| 20260906024838 | 49 | 339 | 2.0 | 4.0 | 0.00 | 0.05 | 0.00 | 90 | 1002.8 |
| 20260906022910 | 40 | 327 | 1.0 | 3.0 | 0.00 | 0.05 | 0.00 | 90 | 1002.7 |
| 20260906022908 | 49 | 327 | 1.0 | 3.0 | 0.00 | 0.05 | 0.00 | 90 | 1002.7 |
| 20260906020913 | 49 | 318 | 1.0 | 4.0 | 0.00 | 0.05 | 0.00 | 90 | 1002.4 |
| 20260906015213 | 50 | 318 | 1.0 | 4.0 | 0.00 | 0.05 | 0.00 | 90 | 1002.3 |
| 20260906013325 | 50 | 0 | 1.0 | 4.0 | 0.00 | 0.05 | 0.00 | 90 | 1002.3 |
| 20260906011518 | 49 | 288 | 2.0 | 6.0 | 0.00 | 0.05 | 0.00 | 91 | 1002.1 |
| 20260906005844 | 50 | 323 | 1.0 | 4.0 | 0.00 | 0.05 | 0.00 | 90 | 1001.4 |
| 20260906005838 | 50 | 323 | 1.0 | 4.0 | 0.00 | 0.05 | 0.00 | 90 | 1001.4 |
| 20260906004033 | 50 | 324 | 1.0 | 2.0 | 0.00 | 0.05 | 0.00 | 90 | 1001.3 |
| 20260906002142 | 50 | 343 | 1.0 | 3.0 | 0.00 | 0.05 | 0.00 | 89 | 1001.1 |
| 20260906000503 | 51 | 354 | 2.0 | 3.0 | 0.00 | 0.05 | 0.00 | 90 | 1001.0 |
| 20260905234908 | 51 | 308 | 1.0 | 6.0 | 0.00 | 0.05 | 0.00 | 89 | 1000.9 |
| 20260905234903 | 51 | 308 | 1.0 | 6.0 | 0.00 | 0.05 | 0.00 | 89 | 1000.9 |
| 20260905233153 | 51 | 305 | 2.0 | 5.0 | 0.00 | 0.05 | 0.00 | 89 | 1000.8 |
| 20260905231343 | 51 | 331 | 1.0 | 3.0 | 0.00 | 0.05 | 0.00 | 88 | 1000.7 |
| 20260905225553 | 52 | 314 | 1.0 | 6.0 | 0.00 | 0.05 | 0.00 | 88 | 1000.6 |
| 20260905223733 | 52 | 304 | 1.0 | 3.0 | 0.00 | 0.05 | 0.00 | 88 | 1000.5 |
| 20260905222103 | 52 | 303 | 1.0 | 3.0 | 0.00 | 0.05 | 0.00 | 89 | 1000.3 |
| 20260905220223 | 53 | 55 | 1.0 | 3.0 | 0.00 | 0.05 | 0.00 | 89 | 1000.3 |
| 20260905214243 | 53 | 2 | 1.0 | 2.0 | 0.00 | 0.05 | 0.00 | 88 | 1000.2 |
| 20260905212432 | 53 | 341 | 0.0 | 3.0 | 0.00 | 0.05 | 0.00 | 88 | 1000.1 |
| 20260905212429 | 53 | 341 | 0.0 | 3.0 | 0.00 | 0.00 | 0.00 | 88 | 1000.1 |
| 20260905210515 | 54 | 353 | 2.0 | 5.0 | 0.00 | 0.05 | 0.00 | 86 | 1000.0 |
| 20260905204807 | 57 | 334 | 2.0 | 4.0 | 0.00 | 0.05 | 0.05 | 79 | 999.2 |
| 20260905204803 | 57 | 334 | 2.0 | 4.0 | 0.00 | 0.05 | 0.05 | 79 | 999.2 |
| 20260905202838 | 57 | 294 | 2.0 | 5.0 | 0.00 | 0.05 | 0.05 | 76 | 999.1 |
| 20260905201143 | 58 | 305 | 3.0 | 6.0 | 0.00 | 0.05 | 0.05 | 74 | 999.0 |
| 20260905195323 | 58 | 287 | 2.0 | 4.0 | 0.00 | 0.05 | 0.05 | 73 | 998.8 |
| 20260905193543 | 59 | 313 | 2.0 | 3.0 | 0.00 | 0.05 | 0.05 | 71 | 998.8 |
| 20260905191951 | 59 | 344 | 2.0 | 3.0 | 0.00 | 0.05 | 0.05 | 70 | 998.8 |
| 20260905191948 | 59 | 344 | 2.0 | 3.0 | 0.00 | 0.05 | 0.05 | 70 | 998.8 |
| 20260905190228 | 59 | 331 | 2.0 | 3.0 | 0.00 | 0.05 | 0.05 | 69 | 998.7 |
| 20260905184543 | 59 | 310 | 1.0 | 2.0 | 0.00 | 0.05 | 0.05 | 69 | 998.6 |
| 20260905182603 | 59 | 316 | 1.0 | 3.0 | 0.00 | 0.05 | 0.05 | 69 | 998.6 |
| 20260905180646 | 59 | 297 | 2.0 | 4.0 | 0.00 | 0.05 | 0.05 | 70 | 998.5 |
| 20260905180643 | 59 | 297 | 2.0 | 4.0 | 0.00 | 0.05 | 0.05 | 70 | 998.5 |
| 20260905175033 | 59 | 296 | 1.0 | 3.0 | 0.00 | 0.05 | 0.05 | 69 | 998.4 |
| 20260905173338 | 59 | 292 | 2.0 | 4.0 | 0.00 | 0.05 | 0.05 | 67 | 998.3 |
| 20260905171711 | 59 | 308 | 1.0 | 3.0 | 0.00 | 0.05 | 0.00 | 67 | 998.2 |
| 20260905171708 | 59 | 308 | 1.0 | 3.0 | 0.00 | 0.05 | 0.05 | 67 | 998.2 |
| 20260905165723 | 61 | 4 | 0.0 | 1.0 | 0.00 | 0.05 | 0.05 | 64 | 997.3 |
| 20260905164028 | 60 | 36 | 0.0 | 0.0 | 0.00 | 0.05 | 0.05 | 69 | 997.3 |
| 20260905162413 | 60 | 28 | 0.0 | 1.0 | 0.00 | 0.05 | 0.05 | 69 | 997.2 |
| 20260905160603 | 61 | 8 | 0.0 | 1.0 | 0.00 | 0.05 | 0.05 | 67 | 997.2 |
| 20260905154858 | 61 | 305 | 0.0 | 1.0 | 0.00 | 0.05 | 0.05 | 67 | 997.0 |
| 20260905154853 | 61 | 305 | 0.0 | 1.0 | 0.00 | 0.05 | 0.05 | 67 | 997.0 |
| 20260905153143 | 61 | 358 | 0.0 | 1.0 | 0.00 | 0.05 | 0.05 | 66 | 996.9 |
| 20260905151403 | 61 | 310 | 2.0 | 5.0 | 0.00 | 0.05 | 0.05 | 65 | 996.9 |
| 20260905145503 | 61 | 64 | 1.0 | 2.0 | 0.00 | 0.05 | 0.00 | 69 | 996.7 |
| 20260905145458 | 61 | 64 | 1.0 | 2.0 | 0.00 | 0.05 | 0.05 | 69 | 996.7 |
| 20260905143541 | 61 | 194 | 4.0 | 7.0 | 0.01 | 0.05 | 0.05 | 70 | 996.6 |
| 20260905143538 | 61 | 194 | 4.0 | 7.0 | 0.01 | 0.05 | 0.05 | 70 | 996.6 |
| 20260905141833 | 59 | 187 | 2.0 | 3.0 | 0.01 | 0.05 | 0.05 | 70 | 996.5 |
| 20260905140058 | 59 | 191 | 2.0 | 4.0 | 0.02 | 0.05 | 0.05 | 75 | 996.4 |
| 20260905134428 | 61 | 199 | 3.0 | 4.0 | 0.04 | 0.05 | 0.04 | 69 | 996.5 |
| 20260905132703 | 64 | 114 | 1.0 | 2.0 | 0.03 | 0.07 | 0.03 | 64 | 996.5 |
| 20260905130818 | 62 | 252 | 0.0 | 2.0 | 0.03 | 0.07 | 0.03 | 62 | 996.5 |
| 20260905124923 | 60 | 188 | 2.0 | 4.0 | 0.01 | 0.05 | 0.01 | 74 | 996.2 |
| 20260905123323 | 61 | 107 | 1.0 | 1.0 | 0.00 | 0.03 | 0.00 | 68 | 996.0 |
| 20260905121500 | 65 | 316 | 1.0 | 2.0 | 0.00 | 0.03 | 0.00 | 58 | 995.8 |
| 20260905115838 | 63 | 191 | 1.0 | 4.0 | 0.00 | 0.00 | 0.00 | 65 | 995.7 |
| 20260905115833 | 63 | 191 | 1.0 | 4.0 | 0.00 | 0.03 | 0.00 | 65 | 995.7 |
| 20260905114013 | 62 | 191 | 3.0 | 5.0 | 0.00 | 0.03 | 0.00 | 68 | 995.6 |
| 20260905112223 | 62 | 182 | 3.0 | 6.0 | 0.00 | 0.03 | 0.00 | 68 | 995.5 |
| 20260905110558 | 62 | 187 | 2.0 | 5.0 | 0.00 | 0.03 | 0.00 | 68 | 995.4 |
| 20260905104753 | 63 | 192 | 3.0 | 5.0 | 0.00 | 0.03 | 0.00 | 65 | 995.3 |
| 20260905102838 | 65 | 317 | 1.0 | 4.0 | 0.00 | 0.03 | 0.00 | 56 | 995.2 |
| 20260905100843 | 63 | 336 | 0.0 | 2.0 | 0.00 | 0.03 | 0.00 | 59 | 995.2 |
| 20260905094858 | 64 | 322 | 1.0 | 3.0 | 0.00 | 0.03 | 0.00 | 58 | 995.1 |
| 20260905092933 | 64 | 301 | 1.0 | 1.0 | 0.00 | 0.03 | 0.00 | 59 | 995.0 |
| 20260905091313 | 64 | 333 | 1.0 | 2.0 | 0.00 | 0.03 | 0.00 | 63 | 994.9 |
| 20260905085644 | 0 | 145 | 0.0 | 6.0 | 0.00 | 0.03 | 0.00 | 71 | 994.6 |
| 20260905085638 | 61 | 145 | 0.0 | 2.0 | 0.00 | 0.03 | 0.00 | 71 | 994.6 |
| 20260905083913 | 59 | 219 | 1.0 | 2.0 | 0.00 | 0.03 | 0.00 | 75 | 994.7 |
| 20260905082003 | 57 | 304 | 1.0 | 2.0 | 0.00 | 0.03 | 0.00 | 80 | 994.6 |
| 20260905080243 | 57 | 122 | 0.0 | 1.0 | 0.00 | 0.03 | 0.00 | 85 | 994.5 |
| 20260905074253 | 55 | 220 | 0.0 | 1.0 | 0.00 | 0.03 | 0.00 | 87 | 994.4 |
| 20260905072411 | 55 | 62 | 0.0 | 1.0 | 0.00 | 0.03 | 0.00 | 90 | 994.3 |
| 20260905070723 | 54 | 299 | 0.0 | 1.0 | 0.00 | 0.03 | 0.00 | 91 | 994.2 |
| 20260905064953 | 53 | 343 | 0.0 | 1.0 | 0.00 | 0.03 | 0.00 | 93 | 994.2 |
| 20260905063156 | 52 | 31 | 0.0 | 3.0 | 0.00 | 0.03 | 0.00 | 94 | 994.1 |
| 20260905061433 | 51 | 69 | 0.0 | 2.0 | 0.00 | 0.03 | 0.00 | 96 | 994.2 |
| 20260905055438 | 50 | 27 | 0.0 | 1.0 | 0.00 | 0.03 | 0.00 | 97 | 994.1 |
| 20260905053631 | 50 | 36 | 1.0 | 3.0 | 0.00 | 0.00 | 0.00 | 99 | 994.2 |
| 20260905053623 | 50 | 36 | 1.0 | 3.0 | 0.00 | 0.03 | 0.00 | 99 | 994.2 |
| 20260905051907 | 50 | 269 | 0.0 | 1.0 | 0.00 | 0.03 | 0.00 | 100 | 994.1 |
| 20260905045940 | 49 | 302 | 0.0 | 1.0 | 0.00 | 0.00 | 0.00 | 100 | 994.2 |
| 20260905045938 | 49 | 302 | 0.0 | 1.0 | 0.00 | 0.03 | 0.00 | 100 | 994.2 |
| 20260905044333 | 49 | 332 | 0.0 | 0.0 | 0.00 | 0.03 | 0.00 | 100 | 994.2 |